sensor_id;sensor_type;location;lat;lon;timestamp;P1;durP1;ratioP1;P2;durP2;ratioP2
3815;SDS011;1923;48.154;11.536;2022-08-01T00:01:39;2.30;;;1.93;;
3815;SDS011;1923;48.154;11.536;2022-08-01T00:04:12;2.33;;;1.90;;
3815;SDS011;1923;48.154;11.536;2022-08-01T00:06:43;1.90;;;1.77;;
3815;SDS011;1923;48.154;11.536;2022-08-01T00:09:11;2.27;;;1.93;;
3815;SDS011;1923;48.154;11.536;2022-08-01T00:11:49;2.10;;;1.87;;
3815;SDS011;1923;48.154;11.536;2022-08-01T00:14:33;3.03;;;2.20;;
3815;SDS011;1923;48.154;11.536;2022-08-01T00:17:01;2.33;;;2.10;;
3815;SDS011;1923;48.154;11.536;2022-08-01T00:19:33;2.70;;;2.17;;
3815;SDS011;1923;48.154;11.536;2022-08-01T00:22:29;3.60;;;1.93;;
3815;SDS011;1923;48.154;11.536;2022-08-01T00:24:58;2.10;;;1.57;;
3815;SDS011;1923;48.154;11.536;2022-08-01T00:27:26;2.70;;;2.17;;
3815;SDS011;1923;48.154;11.536;2022-08-01T00:29:55;2.50;;;1.80;;
3815;SDS011;1923;48.154;11.536;2022-08-01T00:32:40;2.13;;;1.90;;
3815;SDS011;1923;48.154;11.536;2022-08-01T00:35:10;2.73;;;2.53;;
3815;SDS011;1923;48.154;11.536;2022-08-01T00:37:40;2.73;;;2.50;;
3815;SDS011;1923;48.154;11.536;2022-08-01T00:40:10;2.37;;;2.07;;
3815;SDS011;1923;48.154;11.536;2022-08-01T00:42:38;2.17;;;1.80;;
3815;SDS011;1923;48.154;11.536;2022-08-01T00:45:09;2.57;;;2.10;;
3815;SDS011;1923;48.154;11.536;2022-08-01T00:47:38;5.73;;;3.13;;
3815;SDS011;1923;48.154;11.536;2022-08-01T00:50:06;1.70;;;1.60;;
3815;SDS011;1923;48.154;11.536;2022-08-01T00:52:36;2.30;;;1.93;;
3815;SDS011;1923;48.154;11.536;2022-08-01T00:55:07;2.00;;;1.80;;
3815;SDS011;1923;48.154;11.536;2022-08-01T00:57:40;2.27;;;1.70;;
3815;SDS011;1923;48.154;11.536;2022-08-01T01:00:28;2.40;;;2.20;;
3815;SDS011;1923;48.154;11.536;2022-08-01T01:03:07;2.00;;;1.90;;
3815;SDS011;1923;48.154;11.536;2022-08-01T01:05:37;2.97;;;2.40;;
3815;SDS011;1923;48.154;11.536;2022-08-01T01:08:14;2.50;;;2.20;;
3815;SDS011;1923;48.154;11.536;2022-08-01T01:10:53;2.57;;;1.87;;
3815;SDS011;1923;48.154;11.536;2022-08-01T01:13:26;2.03;;;1.90;;
3815;SDS011;1923;48.154;11.536;2022-08-01T01:16:15;2.30;;;2.10;;
3815;SDS011;1923;48.154;11.536;2022-08-01T01:18:47;2.47;;;2.27;;
3815;SDS011;1923;48.154;11.536;2022-08-01T01:21:32;2.70;;;2.50;;
3815;SDS011;1923;48.154;11.536;2022-08-01T01:24:12;2.70;;;2.50;;
3815;SDS011;1923;48.154;11.536;2022-08-01T01:26:49;1.90;;;1.70;;
3815;SDS011;1923;48.154;11.536;2022-08-01T01:29:23;2.43;;;2.23;;
3815;SDS011;1923;48.154;11.536;2022-08-01T01:31:55;1.97;;;1.77;;
3815;SDS011;1923;48.154;11.536;2022-08-01T01:34:30;2.00;;;1.70;;
3815;SDS011;1923;48.154;11.536;2022-08-01T01:37:02;2.60;;;2.10;;
3815;SDS011;1923;48.154;11.536;2022-08-01T01:39:35;3.10;;;2.10;;
3815;SDS011;1923;48.154;11.536;2022-08-01T01:42:10;1.90;;;1.70;;
3815;SDS011;1923;48.154;11.536;2022-08-01T01:44:40;3.33;;;2.30;;
3815;SDS011;1923;48.154;11.536;2022-08-01T01:47:10;2.20;;;2.00;;
3815;SDS011;1923;48.154;11.536;2022-08-01T01:49:39;2.20;;;2.00;;
3815;SDS011;1923;48.154;11.536;2022-08-01T01:52:11;2.70;;;2.17;;
3815;SDS011;1923;48.154;11.536;2022-08-01T01:54:42;2.07;;;1.87;;
3815;SDS011;1923;48.154;11.536;2022-08-01T01:57:14;2.53;;;2.00;;
3815;SDS011;1923;48.154;11.536;2022-08-01T01:59:46;2.67;;;2.07;;
3815;SDS011;1923;48.154;11.536;2022-08-01T02:02:15;2.70;;;2.43;;
3815;SDS011;1923;48.154;11.536;2022-08-01T02:04:45;3.37;;;2.10;;
3815;SDS011;1923;48.154;11.536;2022-08-01T02:07:16;3.67;;;2.13;;
3815;SDS011;1923;48.154;11.536;2022-08-01T02:09:48;2.53;;;2.00;;
3815;SDS011;1923;48.154;11.536;2022-08-01T02:12:18;2.63;;;1.97;;
3815;SDS011;1923;48.154;11.536;2022-08-01T02:14:49;2.40;;;2.20;;
3815;SDS011;1923;48.154;11.536;2022-08-01T02:17:20;2.13;;;1.93;;
3815;SDS011;1923;48.154;11.536;2022-08-01T02:19:50;8.10;;;2.00;;
3815;SDS011;1923;48.154;11.536;2022-08-01T02:22:21;3.10;;;2.73;;
3815;SDS011;1923;48.154;11.536;2022-08-01T02:24:57;2.30;;;2.10;;
3815;SDS011;1923;48.154;11.536;2022-08-01T02:27:30;2.73;;;2.10;;
3815;SDS011;1923;48.154;11.536;2022-08-01T02:30:07;2.10;;;1.90;;
3815;SDS011;1923;48.154;11.536;2022-08-01T02:32:38;3.47;;;2.30;;
3815;SDS011;1923;48.154;11.536;2022-08-01T02:35:11;2.80;;;2.30;;
3815;SDS011;1923;48.154;11.536;2022-08-01T02:37:44;4.13;;;2.43;;
3815;SDS011;1923;48.154;11.536;2022-08-01T02:40:14;2.67;;;2.47;;
3815;SDS011;1923;48.154;11.536;2022-08-01T02:42:45;2.07;;;1.87;;
3815;SDS011;1923;48.154;11.536;2022-08-01T02:45:16;2.50;;;2.30;;
3815;SDS011;1923;48.154;11.536;2022-08-01T02:47:45;2.30;;;1.80;;
3815;SDS011;1923;48.154;11.536;2022-08-01T02:50:15;3.27;;;2.43;;
3815;SDS011;1923;48.154;11.536;2022-08-01T02:52:47;3.03;;;2.20;;
3815;SDS011;1923;48.154;11.536;2022-08-01T02:55:16;2.83;;;2.23;;
3815;SDS011;1923;48.154;11.536;2022-08-01T02:57:47;2.77;;;2.50;;
3815;SDS011;1923;48.154;11.536;2022-08-01T03:00:23;3.10;;;2.27;;
3815;SDS011;1923;48.154;11.536;2022-08-01T03:02:52;3.80;;;1.90;;
3815;SDS011;1923;48.154;11.536;2022-08-01T03:05:22;2.50;;;2.20;;
3815;SDS011;1923;48.154;11.536;2022-08-01T03:07:52;2.07;;;1.87;;
3815;SDS011;1923;48.154;11.536;2022-08-01T03:10:28;3.20;;;1.87;;
3815;SDS011;1923;48.154;11.536;2022-08-01T03:12:58;3.73;;;2.10;;
3815;SDS011;1923;48.154;11.536;2022-08-01T03:15:30;3.27;;;1.80;;
3815;SDS011;1923;48.154;11.536;2022-08-01T03:18:00;3.07;;;2.30;;
3815;SDS011;1923;48.154;11.536;2022-08-01T03:20:32;2.10;;;1.83;;
3815;SDS011;1923;48.154;11.536;2022-08-01T03:23:01;1.80;;;1.70;;
3815;SDS011;1923;48.154;11.536;2022-08-01T03:25:32;2.17;;;1.97;;
3815;SDS011;1923;48.154;11.536;2022-08-01T03:28:04;2.07;;;1.87;;
3815;SDS011;1923;48.154;11.536;2022-08-01T03:30:36;2.87;;;2.07;;
3815;SDS011;1923;48.154;11.536;2022-08-01T03:33:06;3.50;;;2.30;;
3815;SDS011;1923;48.154;11.536;2022-08-01T03:35:41;3.13;;;2.13;;
3815;SDS011;1923;48.154;11.536;2022-08-01T03:38:13;2.50;;;1.90;;
3815;SDS011;1923;48.154;11.536;2022-08-01T03:40:47;2.40;;;1.87;;
3815;SDS011;1923;48.154;11.536;2022-08-01T03:43:20;3.33;;;2.50;;
3815;SDS011;1923;48.154;11.536;2022-08-01T03:45:59;2.40;;;1.73;;
3815;SDS011;1923;48.154;11.536;2022-08-01T03:48:35;3.27;;;2.40;;
3815;SDS011;1923;48.154;11.536;2022-08-01T03:51:06;2.37;;;2.13;;
3815;SDS011;1923;48.154;11.536;2022-08-01T03:53:36;2.03;;;1.83;;
3815;SDS011;1923;48.154;11.536;2022-08-01T03:56:07;1.90;;;1.70;;
3815;SDS011;1923;48.154;11.536;2022-08-01T03:58:38;2.90;;;2.47;;
3815;SDS011;1923;48.154;11.536;2022-08-01T04:01:09;2.83;;;2.20;;
3815;SDS011;1923;48.154;11.536;2022-08-01T04:03:41;2.60;;;2.23;;
3815;SDS011;1923;48.154;11.536;2022-08-01T04:06:09;1.80;;;1.70;;
3815;SDS011;1923;48.154;11.536;2022-08-01T04:08:39;2.90;;;2.20;;
3815;SDS011;1923;48.154;11.536;2022-08-01T04:11:08;4.00;;;2.30;;
3815;SDS011;1923;48.154;11.536;2022-08-01T04:13:36;4.77;;;2.50;;
3815;SDS011;1923;48.154;11.536;2022-08-01T04:16:11;1.93;;;1.73;;
3815;SDS011;1923;48.154;11.536;2022-08-01T04:18:38;2.30;;;2.10;;
3815;SDS011;1923;48.154;11.536;2022-08-01T04:21:07;1.90;;;1.80;;
3815;SDS011;1923;48.154;11.536;2022-08-01T04:23:35;2.30;;;2.10;;
3815;SDS011;1923;48.154;11.536;2022-08-01T04:26:05;2.40;;;2.20;;
3815;SDS011;1923;48.154;11.536;2022-08-01T04:28:36;4.43;;;2.43;;
3815;SDS011;1923;48.154;11.536;2022-08-01T04:31:07;2.63;;;2.10;;
3815;SDS011;1923;48.154;11.536;2022-08-01T04:33:39;3.13;;;2.70;;
3815;SDS011;1923;48.154;11.536;2022-08-01T04:36:11;3.07;;;2.00;;
3815;SDS011;1923;48.154;11.536;2022-08-01T04:38:42;3.97;;;2.67;;
3815;SDS011;1923;48.154;11.536;2022-08-01T04:41:12;4.13;;;2.63;;
3815;SDS011;1923;48.154;11.536;2022-08-01T04:43:43;2.53;;;2.23;;
3815;SDS011;1923;48.154;11.536;2022-08-01T04:46:12;4.70;;;2.50;;
3815;SDS011;1923;48.154;11.536;2022-08-01T04:48:42;4.07;;;2.00;;
3815;SDS011;1923;48.154;11.536;2022-08-01T04:51:12;3.10;;;2.23;;
3815;SDS011;1923;48.154;11.536;2022-08-01T04:53:42;2.90;;;2.50;;
3815;SDS011;1923;48.154;11.536;2022-08-01T04:56:12;2.40;;;2.00;;
3815;SDS011;1923;48.154;11.536;2022-08-01T04:58:40;2.40;;;2.13;;
3815;SDS011;1923;48.154;11.536;2022-08-01T05:01:09;3.13;;;2.07;;
3815;SDS011;1923;48.154;11.536;2022-08-01T05:03:37;2.50;;;2.10;;
3815;SDS011;1923;48.154;11.536;2022-08-01T05:06:07;5.80;;;2.07;;
3815;SDS011;1923;48.154;11.536;2022-08-01T05:08:35;3.50;;;2.03;;
3815;SDS011;1923;48.154;11.536;2022-08-01T05:11:03;3.50;;;2.37;;
3815;SDS011;1923;48.154;11.536;2022-08-01T05:13:31;3.07;;;2.50;;
3815;SDS011;1923;48.154;11.536;2022-08-01T05:15:59;3.60;;;2.50;;
3815;SDS011;1923;48.154;11.536;2022-08-01T05:18:29;2.13;;;1.93;;
3815;SDS011;1923;48.154;11.536;2022-08-01T05:20:58;3.83;;;2.40;;
3815;SDS011;1923;48.154;11.536;2022-08-01T05:23:27;2.00;;;1.67;;
3815;SDS011;1923;48.154;11.536;2022-08-01T05:26:08;2.23;;;2.00;;
3815;SDS011;1923;48.154;11.536;2022-08-01T05:28:39;2.30;;;1.77;;
3815;SDS011;1923;48.154;11.536;2022-08-01T05:31:08;3.73;;;2.40;;
3815;SDS011;1923;48.154;11.536;2022-08-01T05:33:36;3.57;;;1.90;;
3815;SDS011;1923;48.154;11.536;2022-08-01T05:36:04;2.60;;;2.10;;
3815;SDS011;1923;48.154;11.536;2022-08-01T05:38:34;4.50;;;2.50;;
3815;SDS011;1923;48.154;11.536;2022-08-01T05:41:02;3.90;;;2.33;;
3815;SDS011;1923;48.154;11.536;2022-08-01T05:43:30;3.53;;;2.03;;
3815;SDS011;1923;48.154;11.536;2022-08-01T05:45:58;2.97;;;2.00;;
3815;SDS011;1923;48.154;11.536;2022-08-01T05:48:27;2.00;;;1.80;;
3815;SDS011;1923;48.154;11.536;2022-08-01T05:50:55;3.00;;;2.43;;
3815;SDS011;1923;48.154;11.536;2022-08-01T05:53:24;2.90;;;1.97;;
3815;SDS011;1923;48.154;11.536;2022-08-01T05:55:54;2.50;;;2.20;;
3815;SDS011;1923;48.154;11.536;2022-08-01T05:58:22;2.30;;;1.80;;
3815;SDS011;1923;48.154;11.536;2022-08-01T06:00:50;2.23;;;1.87;;
3815;SDS011;1923;48.154;11.536;2022-08-01T06:03:18;3.17;;;2.20;;
3815;SDS011;1923;48.154;11.536;2022-08-01T06:05:46;3.17;;;1.80;;
3815;SDS011;1923;48.154;11.536;2022-08-01T06:08:14;2.57;;;1.40;;
3815;SDS011;1923;48.154;11.536;2022-08-01T06:10:42;2.50;;;1.80;;
3815;SDS011;1923;48.154;11.536;2022-08-01T06:13:12;2.93;;;2.17;;
3815;SDS011;1923;48.154;11.536;2022-08-01T06:15:40;2.30;;;1.97;;
3815;SDS011;1923;48.154;11.536;2022-08-01T06:18:08;2.80;;;2.13;;
3815;SDS011;1923;48.154;11.536;2022-08-01T06:20:36;7.33;;;2.60;;
3815;SDS011;1923;48.154;11.536;2022-08-01T06:23:04;3.40;;;2.10;;
3815;SDS011;1923;48.154;11.536;2022-08-01T06:25:52;2.87;;;2.10;;
3815;SDS011;1923;48.154;11.536;2022-08-01T06:28:22;4.47;;;2.07;;
3815;SDS011;1923;48.154;11.536;2022-08-01T06:30:51;4.60;;;2.40;;
3815;SDS011;1923;48.154;11.536;2022-08-01T06:33:19;2.53;;;2.00;;
3815;SDS011;1923;48.154;11.536;2022-08-01T06:35:47;3.10;;;1.70;;
3815;SDS011;1923;48.154;11.536;2022-08-01T06:38:15;3.73;;;2.20;;
3815;SDS011;1923;48.154;11.536;2022-08-01T06:40:43;2.27;;;1.97;;
3815;SDS011;1923;48.154;11.536;2022-08-01T06:43:11;2.17;;;1.63;;
3815;SDS011;1923;48.154;11.536;2022-08-01T06:45:40;2.40;;;2.07;;
3815;SDS011;1923;48.154;11.536;2022-08-01T06:48:08;2.00;;;1.57;;
3815;SDS011;1923;48.154;11.536;2022-08-01T06:50:37;3.20;;;2.20;;
3815;SDS011;1923;48.154;11.536;2022-08-01T06:53:05;1.87;;;1.40;;
3815;SDS011;1923;48.154;11.536;2022-08-01T06:55:33;2.30;;;2.10;;
3815;SDS011;1923;48.154;11.536;2022-08-01T06:58:01;2.53;;;2.03;;
3815;SDS011;1923;48.154;11.536;2022-08-01T07:00:29;2.90;;;2.43;;
3815;SDS011;1923;48.154;11.536;2022-08-01T07:02:59;4.00;;;2.63;;
3815;SDS011;1923;48.154;11.536;2022-08-01T07:05:27;3.70;;;2.00;;
3815;SDS011;1923;48.154;11.536;2022-08-01T07:07:57;2.40;;;1.90;;
3815;SDS011;1923;48.154;11.536;2022-08-01T07:10:25;1.73;;;1.60;;
3815;SDS011;1923;48.154;11.536;2022-08-01T07:12:53;3.43;;;1.70;;
3815;SDS011;1923;48.154;11.536;2022-08-01T07:15:21;3.10;;;1.97;;
3815;SDS011;1923;48.154;11.536;2022-08-01T07:17:52;2.60;;;2.00;;
3815;SDS011;1923;48.154;11.536;2022-08-01T07:20:22;2.60;;;1.93;;
3815;SDS011;1923;48.154;11.536;2022-08-01T07:22:51;2.97;;;1.90;;
3815;SDS011;1923;48.154;11.536;2022-08-01T07:25:21;2.30;;;1.83;;
3815;SDS011;1923;48.154;11.536;2022-08-01T07:27:49;2.47;;;1.90;;
3815;SDS011;1923;48.154;11.536;2022-08-01T07:30:18;3.27;;;2.20;;
3815;SDS011;1923;48.154;11.536;2022-08-01T07:32:45;2.70;;;1.80;;
3815;SDS011;1923;48.154;11.536;2022-08-01T07:35:13;2.87;;;2.20;;
3815;SDS011;1923;48.154;11.536;2022-08-01T07:37:43;2.83;;;2.40;;
3815;SDS011;1923;48.154;11.536;2022-08-01T07:40:14;2.63;;;2.20;;
3815;SDS011;1923;48.154;11.536;2022-08-01T07:42:44;4.60;;;2.27;;
3815;SDS011;1923;48.154;11.536;2022-08-01T07:45:12;2.03;;;1.83;;
3815;SDS011;1923;48.154;11.536;2022-08-01T07:47:41;3.70;;;1.90;;
3815;SDS011;1923;48.154;11.536;2022-08-01T07:50:09;2.50;;;1.60;;
3815;SDS011;1923;48.154;11.536;2022-08-01T07:52:38;3.00;;;2.00;;
3815;SDS011;1923;48.154;11.536;2022-08-01T07:55:09;2.23;;;1.97;;
3815;SDS011;1923;48.154;11.536;2022-08-01T07:57:41;2.87;;;2.10;;
3815;SDS011;1923;48.154;11.536;2022-08-01T08:00:10;2.03;;;1.57;;
3815;SDS011;1923;48.154;11.536;2022-08-01T08:02:39;2.30;;;1.87;;
3815;SDS011;1923;48.154;11.536;2022-08-01T08:05:07;2.77;;;2.10;;
3815;SDS011;1923;48.154;11.536;2022-08-01T08:07:37;3.33;;;1.80;;
3815;SDS011;1923;48.154;11.536;2022-08-01T08:10:05;2.33;;;1.70;;
3815;SDS011;1923;48.154;11.536;2022-08-01T08:12:35;3.03;;;1.67;;
3815;SDS011;1923;48.154;11.536;2022-08-01T08:15:04;1.47;;;1.33;;
3815;SDS011;1923;48.154;11.536;2022-08-01T08:17:32;1.73;;;1.63;;
3815;SDS011;1923;48.154;11.536;2022-08-01T08:20:02;2.23;;;1.80;;
3815;SDS011;1923;48.154;11.536;2022-08-01T08:22:35;2.00;;;1.77;;
3815;SDS011;1923;48.154;11.536;2022-08-01T08:25:03;1.93;;;1.60;;
3815;SDS011;1923;48.154;11.536;2022-08-01T08:27:33;2.23;;;1.40;;
3815;SDS011;1923;48.154;11.536;2022-08-01T08:30:04;1.67;;;1.57;;
3815;SDS011;1923;48.154;11.536;2022-08-01T08:32:34;1.37;;;1.27;;
3815;SDS011;1923;48.154;11.536;2022-08-01T08:35:03;2.40;;;1.80;;
3815;SDS011;1923;48.154;11.536;2022-08-01T08:37:33;3.30;;;2.07;;
3815;SDS011;1923;48.154;11.536;2022-08-01T08:40:04;1.87;;;1.40;;
3815;SDS011;1923;48.154;11.536;2022-08-01T08:42:33;1.73;;;1.63;;
3815;SDS011;1923;48.154;11.536;2022-08-01T08:45:02;2.30;;;1.73;;
3815;SDS011;1923;48.154;11.536;2022-08-01T08:47:38;2.50;;;1.87;;
3815;SDS011;1923;48.154;11.536;2022-08-01T08:50:08;1.60;;;1.30;;
3815;SDS011;1923;48.154;11.536;2022-08-01T08:52:37;2.40;;;1.97;;
3815;SDS011;1923;48.154;11.536;2022-08-01T08:55:07;2.23;;;1.70;;
3815;SDS011;1923;48.154;11.536;2022-08-01T08:57:38;2.87;;;1.50;;
3815;SDS011;1923;48.154;11.536;2022-08-01T09:00:08;2.50;;;1.73;;
3815;SDS011;1923;48.154;11.536;2022-08-01T09:02:41;2.20;;;1.60;;
3815;SDS011;1923;48.154;11.536;2022-08-01T09:05:10;4.63;;;2.17;;
3815;SDS011;1923;48.154;11.536;2022-08-01T09:07:44;3.10;;;2.10;;
3815;SDS011;1923;48.154;11.536;2022-08-01T09:10:12;1.90;;;1.57;;
3815;SDS011;1923;48.154;11.536;2022-08-01T09:15:40;3.57;;;2.00;;
3815;SDS011;1923;48.154;11.536;2022-08-01T09:18:31;4.63;;;1.57;;
3815;SDS011;1923;48.154;11.536;2022-08-01T09:21:07;2.13;;;1.53;;
3815;SDS011;1923;48.154;11.536;2022-08-01T09:23:37;2.60;;;2.00;;
3815;SDS011;1923;48.154;11.536;2022-08-01T09:26:20;1.70;;;1.60;;
3815;SDS011;1923;48.154;11.536;2022-08-01T09:28:56;1.70;;;1.43;;
3815;SDS011;1923;48.154;11.536;2022-08-01T09:31:26;2.20;;;2.00;;
3815;SDS011;1923;48.154;11.536;2022-08-01T09:34:05;2.13;;;1.60;;
3815;SDS011;1923;48.154;11.536;2022-08-01T09:36:44;1.90;;;1.47;;
3815;SDS011;1923;48.154;11.536;2022-08-01T09:39:20;1.20;;;1.10;;
3815;SDS011;1923;48.154;11.536;2022-08-01T09:41:49;2.67;;;1.43;;
3815;SDS011;1923;48.154;11.536;2022-08-01T09:44:26;1.80;;;1.03;;
3815;SDS011;1923;48.154;11.536;2022-08-01T09:47:08;3.20;;;1.50;;
3815;SDS011;1923;48.154;11.536;2022-08-01T09:49:42;1.77;;;0.83;;
3815;SDS011;1923;48.154;11.536;2022-08-01T09:52:17;1.60;;;1.00;;
3815;SDS011;1923;48.154;11.536;2022-08-01T09:54:55;1.23;;;0.80;;
3815;SDS011;1923;48.154;11.536;2022-08-01T09:57:23;1.53;;;0.97;;
3815;SDS011;1923;48.154;11.536;2022-08-01T09:59:53;1.10;;;0.80;;
3815;SDS011;1923;48.154;11.536;2022-08-01T10:02:27;0.80;;;0.63;;
3815;SDS011;1923;48.154;11.536;2022-08-01T10:04:58;1.13;;;0.77;;
3815;SDS011;1923;48.154;11.536;2022-08-01T10:07:34;0.73;;;0.60;;
3815;SDS011;1923;48.154;11.536;2022-08-01T10:10:10;1.23;;;0.90;;
3815;SDS011;1923;48.154;11.536;2022-08-01T10:12:40;2.60;;;1.23;;
3815;SDS011;1923;48.154;11.536;2022-08-01T10:15:11;0.60;;;0.57;;
3815;SDS011;1923;48.154;11.536;2022-08-01T10:17:45;1.37;;;1.23;;
3815;SDS011;1923;48.154;11.536;2022-08-01T10:20:22;0.80;;;0.80;;
3815;SDS011;1923;48.154;11.536;2022-08-01T10:22:58;0.80;;;0.80;;
3815;SDS011;1923;48.154;11.536;2022-08-01T10:25:33;0.80;;;0.80;;
3815;SDS011;1923;48.154;11.536;2022-08-01T10:28:11;1.10;;;0.90;;
3815;SDS011;1923;48.154;11.536;2022-08-01T10:30:49;1.23;;;1.00;;
3815;SDS011;1923;48.154;11.536;2022-08-01T10:33:18;0.93;;;0.87;;
3815;SDS011;1923;48.154;11.536;2022-08-01T10:36:11;2.17;;;1.17;;
3815;SDS011;1923;48.154;11.536;2022-08-01T10:38:39;1.30;;;1.20;;
3815;SDS011;1923;48.154;11.536;2022-08-01T10:41:09;0.60;;;0.43;;
3815;SDS011;1923;48.154;11.536;2022-08-01T10:43:41;0.80;;;0.53;;
3815;SDS011;1923;48.154;11.536;2022-08-01T10:46:10;0.83;;;0.70;;
3815;SDS011;1923;48.154;11.536;2022-08-01T10:48:41;2.40;;;0.97;;
3815;SDS011;1923;48.154;11.536;2022-08-01T10:51:18;2.87;;;1.23;;
3815;SDS011;1923;48.154;11.536;2022-08-01T10:54:08;1.10;;;1.00;;
3815;SDS011;1923;48.154;11.536;2022-08-01T10:56:39;0.70;;;0.60;;
3815;SDS011;1923;48.154;11.536;2022-08-01T10:59:09;0.93;;;0.83;;
3815;SDS011;1923;48.154;11.536;2022-08-01T11:02:03;1.40;;;0.90;;
3815;SDS011;1923;48.154;11.536;2022-08-01T11:04:33;2.23;;;1.27;;
3815;SDS011;1923;48.154;11.536;2022-08-01T11:07:19;1.60;;;1.40;;
3815;SDS011;1923;48.154;11.536;2022-08-01T11:09:58;1.30;;;0.77;;
3815;SDS011;1923;48.154;11.536;2022-08-01T11:12:40;3.50;;;1.60;;
3815;SDS011;1923;48.154;11.536;2022-08-01T11:18:31;2.40;;;1.10;;
3815;SDS011;1923;48.154;11.536;2022-08-01T11:21:03;1.63;;;1.10;;
3815;SDS011;1923;48.154;11.536;2022-08-01T11:23:52;1.50;;;0.93;;
3815;SDS011;1923;48.154;11.536;2022-08-01T11:26:23;1.83;;;1.00;;
3815;SDS011;1923;48.154;11.536;2022-08-01T11:29:12;1.43;;;1.17;;
3815;SDS011;1923;48.154;11.536;2022-08-01T11:31:47;1.40;;;1.00;;
3815;SDS011;1923;48.154;11.536;2022-08-01T11:34:16;1.47;;;1.03;;
3815;SDS011;1923;48.154;11.536;2022-08-01T11:36:44;1.50;;;1.03;;
3815;SDS011;1923;48.154;11.536;2022-08-01T11:39:30;0.87;;;0.70;;
3815;SDS011;1923;48.154;11.536;2022-08-01T11:44:48;1.50;;;1.00;;
3815;SDS011;1923;48.154;11.536;2022-08-01T11:47:17;1.70;;;1.10;;
3815;SDS011;1923;48.154;11.536;2022-08-01T11:49:47;2.23;;;1.30;;
3815;SDS011;1923;48.154;11.536;2022-08-01T11:52:24;2.57;;;1.33;;
3815;SDS011;1923;48.154;11.536;2022-08-01T11:54:56;1.67;;;0.93;;
3815;SDS011;1923;48.154;11.536;2022-08-01T11:57:25;2.00;;;1.40;;
3815;SDS011;1923;48.154;11.536;2022-08-01T12:00:00;1.97;;;1.30;;
3815;SDS011;1923;48.154;11.536;2022-08-01T12:02:34;2.40;;;0.97;;
3815;SDS011;1923;48.154;11.536;2022-08-01T12:05:03;2.20;;;0.87;;
3815;SDS011;1923;48.154;11.536;2022-08-01T12:07:37;1.87;;;0.90;;
3815;SDS011;1923;48.154;11.536;2022-08-01T12:10:08;2.40;;;1.07;;
3815;SDS011;1923;48.154;11.536;2022-08-01T12:12:42;1.20;;;0.90;;
3815;SDS011;1923;48.154;11.536;2022-08-01T12:15:11;2.07;;;1.10;;
3815;SDS011;1923;48.154;11.536;2022-08-01T12:17:40;2.23;;;1.50;;
3815;SDS011;1923;48.154;11.536;2022-08-01T12:20:24;0.80;;;0.60;;
3815;SDS011;1923;48.154;11.536;2022-08-01T12:22:56;3.20;;;1.50;;
3815;SDS011;1923;48.154;11.536;2022-08-01T12:25:26;1.80;;;0.90;;
3815;SDS011;1923;48.154;11.536;2022-08-01T12:27:54;1.37;;;1.00;;
3815;SDS011;1923;48.154;11.536;2022-08-01T12:30:26;2.13;;;1.00;;
3815;SDS011;1923;48.154;11.536;2022-08-01T12:32:57;2.03;;;1.40;;
3815;SDS011;1923;48.154;11.536;2022-08-01T12:35:26;1.60;;;1.37;;
3815;SDS011;1923;48.154;11.536;2022-08-01T12:37:56;2.40;;;1.17;;
3815;SDS011;1923;48.154;11.536;2022-08-01T12:40:27;2.27;;;1.10;;
3815;SDS011;1923;48.154;11.536;2022-08-01T12:42:57;3.77;;;1.07;;
3815;SDS011;1923;48.154;11.536;2022-08-01T12:45:28;1.20;;;0.60;;
3815;SDS011;1923;48.154;11.536;2022-08-01T12:48:00;1.13;;;0.77;;
3815;SDS011;1923;48.154;11.536;2022-08-01T12:50:30;3.50;;;1.20;;
3815;SDS011;1923;48.154;11.536;2022-08-01T12:52:59;2.00;;;1.20;;
3815;SDS011;1923;48.154;11.536;2022-08-01T12:55:33;1.23;;;1.07;;
3815;SDS011;1923;48.154;11.536;2022-08-01T12:58:29;1.43;;;0.60;;
3815;SDS011;1923;48.154;11.536;2022-08-01T13:01:02;0.83;;;0.70;;
3815;SDS011;1923;48.154;11.536;2022-08-01T13:03:33;1.37;;;1.13;;
3815;SDS011;1923;48.154;11.536;2022-08-01T13:06:05;1.20;;;1.00;;
3815;SDS011;1923;48.154;11.536;2022-08-01T13:08:39;0.80;;;0.70;;
3815;SDS011;1923;48.154;11.536;2022-08-01T13:11:10;2.00;;;1.30;;
3815;SDS011;1923;48.154;11.536;2022-08-01T13:13:43;1.87;;;0.93;;
3815;SDS011;1923;48.154;11.536;2022-08-01T13:16:13;1.07;;;0.80;;
3815;SDS011;1923;48.154;11.536;2022-08-01T13:18:59;2.93;;;1.03;;
3815;SDS011;1923;48.154;11.536;2022-08-01T13:21:28;1.93;;;1.10;;
3815;SDS011;1923;48.154;11.536;2022-08-01T13:24:22;2.00;;;0.70;;
3815;SDS011;1923;48.154;11.536;2022-08-01T13:26:54;1.30;;;1.07;;
3815;SDS011;1923;48.154;11.536;2022-08-01T13:29:30;1.10;;;0.90;;
3815;SDS011;1923;48.154;11.536;2022-08-01T13:31:59;1.63;;;0.97;;
3815;SDS011;1923;48.154;11.536;2022-08-01T13:35:00;1.20;;;1.00;;
3815;SDS011;1923;48.154;11.536;2022-08-01T13:37:29;2.10;;;1.30;;
3815;SDS011;1923;48.154;11.536;2022-08-01T13:39:57;1.20;;;1.10;;
3815;SDS011;1923;48.154;11.536;2022-08-01T13:42:27;1.23;;;0.70;;
3815;SDS011;1923;48.154;11.536;2022-08-01T13:44:56;1.30;;;1.20;;
3815;SDS011;1923;48.154;11.536;2022-08-01T13:47:25;1.43;;;0.97;;
3815;SDS011;1923;48.154;11.536;2022-08-01T13:49:57;1.03;;;0.67;;
3815;SDS011;1923;48.154;11.536;2022-08-01T13:52:27;3.13;;;0.83;;
3815;SDS011;1923;48.154;11.536;2022-08-01T13:54:55;2.73;;;1.00;;
3815;SDS011;1923;48.154;11.536;2022-08-01T13:57:23;1.30;;;0.83;;
3815;SDS011;1923;48.154;11.536;2022-08-01T14:00:04;0.93;;;0.77;;
3815;SDS011;1923;48.154;11.536;2022-08-01T14:02:34;2.37;;;1.20;;
3815;SDS011;1923;48.154;11.536;2022-08-01T14:05:03;1.70;;;0.90;;
3815;SDS011;1923;48.154;11.536;2022-08-01T14:07:32;2.57;;;1.40;;
3815;SDS011;1923;48.154;11.536;2022-08-01T14:10:03;4.43;;;1.13;;
3815;SDS011;1923;48.154;11.536;2022-08-01T14:12:45;1.43;;;1.07;;
3815;SDS011;1923;48.154;11.536;2022-08-01T14:15:15;3.80;;;1.23;;
3815;SDS011;1923;48.154;11.536;2022-08-01T14:18:04;4.03;;;1.77;;
3815;SDS011;1923;48.154;11.536;2022-08-01T14:20:35;1.77;;;1.13;;
3815;SDS011;1923;48.154;11.536;2022-08-01T14:23:04;2.00;;;1.10;;
3815;SDS011;1923;48.154;11.536;2022-08-01T14:25:35;2.63;;;1.17;;
3815;SDS011;1923;48.154;11.536;2022-08-01T14:28:24;2.33;;;1.30;;
3815;SDS011;1923;48.154;11.536;2022-08-01T14:30:56;2.10;;;1.33;;
3815;SDS011;1923;48.154;11.536;2022-08-01T14:33:25;2.00;;;1.10;;
3815;SDS011;1923;48.154;11.536;2022-08-01T14:35:53;1.50;;;1.30;;
3815;SDS011;1923;48.154;11.536;2022-08-01T14:38:41;1.60;;;1.23;;
3815;SDS011;1923;48.154;11.536;2022-08-01T14:41:13;2.10;;;1.37;;
3815;SDS011;1923;48.154;11.536;2022-08-01T14:43:42;11.80;;;4.17;;
3815;SDS011;1923;48.154;11.536;2022-08-01T14:46:15;2.17;;;1.30;;
3815;SDS011;1923;48.154;11.536;2022-08-01T14:48:45;2.27;;;1.23;;
3815;SDS011;1923;48.154;11.536;2022-08-01T14:51:13;3.63;;;1.63;;
3815;SDS011;1923;48.154;11.536;2022-08-01T14:53:42;3.10;;;1.50;;
3815;SDS011;1923;48.154;11.536;2022-08-01T14:56:16;1.30;;;1.10;;
3815;SDS011;1923;48.154;11.536;2022-08-01T14:58:44;2.30;;;1.70;;
3815;SDS011;1923;48.154;11.536;2022-08-01T15:01:15;1.67;;;1.13;;
3815;SDS011;1923;48.154;11.536;2022-08-01T15:03:44;1.80;;;1.20;;
3815;SDS011;1923;48.154;11.536;2022-08-01T15:06:14;2.30;;;1.30;;
3815;SDS011;1923;48.154;11.536;2022-08-01T15:08:42;1.40;;;1.00;;
3815;SDS011;1923;48.154;11.536;2022-08-01T15:11:10;2.37;;;1.30;;
3815;SDS011;1923;48.154;11.536;2022-08-01T15:13:38;3.03;;;1.17;;
3815;SDS011;1923;48.154;11.536;2022-08-01T15:16:08;2.50;;;1.70;;
3815;SDS011;1923;48.154;11.536;2022-08-01T15:18:38;2.20;;;1.10;;
3815;SDS011;1923;48.154;11.536;2022-08-01T15:21:08;2.03;;;1.00;;
3815;SDS011;1923;48.154;11.536;2022-08-01T15:23:50;1.20;;;1.10;;
3815;SDS011;1923;48.154;11.536;2022-08-01T15:26:19;2.27;;;1.60;;
3815;SDS011;1923;48.154;11.536;2022-08-01T15:28:49;1.60;;;1.23;;
3815;SDS011;1923;48.154;11.536;2022-08-01T15:31:19;2.13;;;1.30;;
3815;SDS011;1923;48.154;11.536;2022-08-01T15:33:57;2.50;;;1.10;;
3815;SDS011;1923;48.154;11.536;2022-08-01T15:36:29;2.70;;;1.33;;
3815;SDS011;1923;48.154;11.536;2022-08-01T15:38:58;2.03;;;1.40;;